Time;durP1;ratioP1;P1;durP2;ratioP2;P2;SDS_P1;SDS_P2;PMS_P1;PMS_P2;Temp;Humidity;BMP_temperature;BMP_pressure;BME280_temperature;BME280_humidity;BME280_pressure;Samples;Min_cycle;Max_cycle;Signal;HPM_P1;HPM_P2
2022/05/21 00:01:20;;;;;;;4.25;1.58;;;19.50;79.80;;;;;;5093751;28;20023;-72
2022/05/21 00:03:45;;;;;;;4.95;1.40;;;19.50;80.50;;;;;;5093400;28;20484;-72
2022/05/21 00:06:11;;;;;;;3.38;1.48;;;19.40;80.80;;;;;;5093174;28;20036;-72
2022/05/21 00:08:36;;;;;;;4.32;1.50;;;19.40;80.40;;;;;;5093639;28;20024;-72
2022/05/21 00:11:03;;;;;;;4.70;1.65;;;19.50;80.30;;;;;;5093417;28;20040;-72
2022/05/21 00:13:29;;;;;;;5.22;1.85;;;19.40;80.80;;;;;;5093552;28;20373;-72
2022/05/21 00:15:54;;;;;;;4.78;1.30;;;19.40;80.70;;;;;;5092431;28;20043;-72
2022/05/21 00:18:20;;;;;;;5.30;1.50;;;19.40;81.00;;;;;;5093013;28;20020;-71
2022/05/21 00:20:48;;;;;;;6.35;1.23;;;19.50;81.20;;;;;;5093301;28;20061;-73
2022/05/21 00:23:22;;;;;;;7.25;1.67;;;19.40;81.60;;;;;;5093524;28;20525;-72
2022/05/21 00:25:50;;;;;;;6.00;1.42;;;19.40;81.40;;;;;;5092943;28;20036;-72
2022/05/21 00:28:16;;;;;;;6.47;1.60;;;19.40;80.60;;;;;;5093210;28;20515;-72
2022/05/21 00:30:42;;;;;;;6.82;1.83;;;19.40;81.20;;;;;;5092801;28;20052;-72
2022/05/21 00:33:08;;;;;;;4.68;1.40;;;19.40;80.80;;;;;;5093430;28;20418;-72
2022/05/21 00:35:34;;;;;;;5.97;1.40;;;19.30;80.70;;;;;;5092795;28;20047;-71
2022/05/21 00:37:59;;;;;;;4.13;1.70;;;19.30;80.70;;;;;;5093279;28;20461;-73
2022/05/21 00:40:25;;;;;;;6.65;1.98;;;19.30;81.80;;;;;;5093209;28;20473;-72
2022/05/21 00:42:51;;;;;;;6.53;1.52;;;19.30;81.30;;;;;;5093409;28;20024;-72
2022/05/21 00:45:18;;;;;;;5.60;1.45;;;19.30;81.00;;;;;;5093019;28;20066;-73
2022/05/21 00:47:44;;;;;;;3.33;1.25;;;19.30;82.00;;;;;;5092948;28;20381;-72
2022/05/21 00:50:13;;;;;;;4.55;1.30;;;19.30;82.10;;;;;;5092886;28;20028;-72
2022/05/21 00:52:40;;;;;;;7.30;1.92;;;19.30;82.30;;;;;;5093114;28;20109;-71
2022/05/21 00:55:15;;;;;;;5.18;1.58;;;19.30;81.40;;;;;;5093040;28;20020;-72
2022/05/21 00:57:46;;;;;;;5.22;1.50;;;19.30;82.20;;;;;;5092118;28;20059;-72
2022/05/21 01:00:17;;;;;;;5.30;1.50;;;19.30;82.50;;;;;;5093209;28;20081;-72
2022/05/21 01:02:57;;;;;;;3.97;1.10;;;19.30;82.10;;;;;;5092676;28;20022;-72
2022/05/21 01:05:26;;;;;;;5.78;1.55;;;19.20;82.10;;;;;;5093058;28;20024;-72
2022/05/21 01:07:55;;;;;;;7.68;1.90;;;19.20;81.80;;;;;;5093114;28;20063;-72
2022/05/21 01:10:22;;;;;;;5.70;1.60;;;19.20;81.70;;;;;;5092921;28;20032;-72
2022/05/21 01:12:50;;;;;;;5.82;1.38;;;19.20;81.80;;;;;;5092336;28;20013;-74
2022/05/21 01:15:23;;;;;;;6.00;1.33;;;19.20;81.60;;;;;;5092687;28;20024;-73
2022/05/21 01:17:49;;;;;;;5.07;1.55;;;19.10;81.50;;;;;;5092778;28;20051;-72
2022/05/21 01:20:18;;;;;;;5.25;1.77;;;19.10;82.80;;;;;;5093110;28;20016;-72
2022/05/21 01:22:52;;;;;;;6.97;1.55;;;19.10;82.20;;;;;;5092132;28;20028;-72
2022/05/21 01:25:23;;;;;;;5.10;1.38;;;19.10;82.50;;;;;;5092995;28;20024;-72
2022/05/21 01:27:51;;;;;;;8.32;1.70;;;19.10;82.40;;;;;;5092626;28;20058;-71
2022/05/21 01:30:23;;;;;;;5.65;1.50;;;19.10;82.20;;;;;;5095855;28;20040;-72
2022/05/21 01:32:50;;;;;;;5.85;1.15;;;19.10;82.60;;;;;;5095919;28;20024;-72
2022/05/21 01:35:18;;;;;;;4.80;1.77;;;19.10;81.90;;;;;;5095822;28;20031;-72
2022/05/21 01:37:44;;;;;;;7.15;1.50;;;19.00;81.40;;;;;;5096194;28;20021;-71
2022/05/21 01:40:11;;;;;;;5.28;1.40;;;19.00;82.10;;;;;;5096218;28;20024;-72
2022/05/21 01:42:38;;;;;;;6.43;1.60;;;19.00;82.40;;;;;;5096176;28;20016;-71
2022/05/21 01:45:05;;;;;;;7.68;1.90;;;19.00;83.10;;;;;;5095766;28;20105;-72
2022/05/21 01:47:31;;;;;;;5.93;1.45;;;19.00;82.70;;;;;;5096289;28;20032;-72
2022/05/21 01:49:57;;;;;;;5.55;1.38;;;19.00;82.20;;;;;;5096266;28;20032;-72
2022/05/21 01:52:25;;;;;;;5.97;1.50;;;19.00;82.70;;;;;;5096204;28;20089;-72
2022/05/21 01:54:51;;;;;;;6.90;1.70;;;19.00;83.40;;;;;;5095819;28;20027;-72
2022/05/21 01:57:17;;;;;;;7.93;1.50;;;19.00;82.90;;;;;;5096253;28;20020;-72
2022/05/21 01:59:43;;;;;;;5.05;1.23;;;19.00;82.60;;;;;;5095519;28;20493;-71
2022/05/21 02:02:09;;;;;;;6.85;1.67;;;19.00;82.70;;;;;;5095827;28;20058;-71
2022/05/21 02:11:18;;;;;;;12.48;1.45;;;18.90;82.80;;;;;;5105825;22;20086;-71
2022/05/21 02:13:43;;;;;;;6.60;1.55;;;18.90;83.30;;;;;;5074639;28;20016;-71
2022/05/21 02:16:09;;;;;;;6.95;2.13;;;18.90;82.70;;;;;;5075722;28;20372;-69
2022/05/21 02:18:34;;;;;;;8.05;1.42;;;18.80;82.70;;;;;;5075513;28;20103;-70
2022/05/21 02:21:00;;;;;;;6.72;2.42;;;18.80;82.80;;;;;;5075264;28;20052;-71
2022/05/21 02:23:26;;;;;;;10.63;1.90;;;18.70;82.70;;;;;;5074787;28;20104;-72
2022/05/21 02:25:52;;;;;;;9.40;2.63;;;18.70;82.70;;;;;;5075689;28;20658;-69
2022/05/21 02:28:18;;;;;;;8.77;2.10;;;18.70;83.10;;;;;;5075005;28;20020;-72
2022/05/21 02:30:44;;;;;;;8.27;1.60;;;18.70;83.10;;;;;;5075133;28;20117;-71
2022/05/21 02:33:10;;;;;;;8.18;1.90;;;18.70;83.00;;;;;;5074311;28;20028;-71
2022/05/21 02:35:36;;;;;;;8.13;2.35;;;18.70;83.30;;;;;;5072477;28;20033;-72
2022/05/21 02:40:46;;;;;;;7.30;1.85;;;18.60;83.30;;;;;;5054775;28;20167;-72
2022/05/21 02:43:12;;;;;;;10.45;1.80;;;18.60;83.50;;;;;;5072420;28;20115;-70
2022/05/21 02:45:37;;;;;;;8.23;2.20;;;18.60;83.60;;;;;;5074872;28;20021;-72
2022/05/21 02:48:03;;;;;;;10.40;2.15;;;18.60;83.70;;;;;;5074649;28;20480;-71
2022/05/21 02:50:32;;;;;;;7.65;1.92;;;18.60;84.00;;;;;;5074713;28;20046;-71
2022/05/21 02:52:59;;;;;;;6.68;1.90;;;18.60;84.30;;;;;;5074001;28;20092;-72
2022/05/21 02:55:25;;;;;;;8.32;2.28;;;18.70;84.60;;;;;;5074870;28;20037;-71
2022/05/21 02:57:51;;;;;;;6.22;2.20;;;18.70;84.60;;;;;;5074408;28;20021;-69
2022/05/21 03:00:21;;;;;;;11.60;3.50;;;18.70;84.40;;;;;;5074865;28;20473;-71
2022/05/21 03:02:47;;;;;;;9.05;2.78;;;18.60;84.30;;;;;;5074226;28;20021;-72
2022/05/21 03:05:13;;;;;;;12.65;2.95;;;18.60;84.50;;;;;;5074466;28;20109;-68
2022/05/21 03:07:41;;;;;;;5.07;1.92;;;18.60;84.60;;;;;;5074733;28;20074;-71
2022/05/21 03:10:23;;;;;;;10.73;3.83;;;18.70;85.40;;;;;;5074193;28;20081;-70
2022/05/21 03:12:58;;;;;;;10.93;3.67;;;18.60;85.00;;;;;;5073659;28;20036;-71
2022/05/21 03:15:30;;;;;;;7.80;2.50;;;18.60;84.70;;;;;;5074506;28;20078;-72
2022/05/21 03:17:56;;;;;;;10.60;3.08;;;18.60;84.60;;;;;;5074640;28;20016;-71
2022/05/21 03:20:22;;;;;;;9.32;3.47;;;18.60;84.60;;;;;;5074166;28;20090;-71
2022/05/21 03:22:48;;;;;;;11.45;3.13;;;18.50;84.70;;;;;;5073783;28;20469;-70
2022/05/21 03:25:14;;;;;;;7.93;3.13;;;18.60;84.90;;;;;;5073971;28;20513;-69
2022/05/21 03:27:40;;;;;;;11.60;3.75;;;18.50;84.70;;;;;;5074163;28;20048;-67
2022/05/21 03:30:11;;;;;;;7.32;2.80;;;18.50;84.80;;;;;;5074223;28;20036;-72
2022/05/21 03:32:36;;;;;;;9.35;2.65;;;18.50;85.00;;;;;;5073858;28;20362;-72
2022/05/21 03:35:02;;;;;;;8.75;3.03;;;18.40;85.00;;;;;;5073700;28;20150;-71
2022/05/21 03:37:28;;;;;;;12.73;2.88;;;18.40;85.20;;;;;;5074076;28;20082;-68
2022/05/21 03:39:54;;;;;;;7.93;2.55;;;18.50;85.30;;;;;;5073638;28;20037;-71
2022/05/21 03:42:19;;;;;;;10.13;2.58;;;18.40;85.40;;;;;;5073146;28;20388;-71
2022/05/21 03:44:46;;;;;;;8.75;2.85;;;18.40;85.30;;;;;;5073659;28;20481;-70
2022/05/21 03:47:12;;;;;;;11.63;3.28;;;18.40;85.40;;;;;;5073697;28;20476;-68
2022/05/21 03:49:38;;;;;;;9.02;2.83;;;18.40;85.40;;;;;;5073786;28;20074;-71
2022/05/21 03:52:06;;;;;;;9.73;3.60;;;18.30;85.40;;;;;;5072611;28;20029;-69
2022/05/21 03:54:32;;;;;;;10.30;2.97;;;18.30;85.70;;;;;;5073567;28;20024;-71
2022/05/21 03:56:58;;;;;;;7.18;2.35;;;18.30;85.90;;;;;;5073229;28;20048;-72
2022/05/21 03:59:24;;;;;;;11.98;3.20;;;18.40;85.90;;;;;;5073344;28;20434;-71
2022/05/21 04:01:49;;;;;;;13.60;3.67;;;18.30;85.80;;;;;;5073493;28;20071;-63
2022/05/21 04:04:15;;;;;;;11.95;4.20;;;18.30;85.90;;;;;;5073461;28;20051;-70
2022/05/21 04:06:41;;;;;;;14.55;4.88;;;18.30;86.00;;;;;;5073951;28;20017;-62
2022/05/21 04:09:06;;;;;;;12.00;3.90;;;18.30;86.10;;;;;;5072951;28;20104;-72
2022/05/21 04:11:32;;;;;;;11.35;4.50;;;18.30;86.20;;;;;;5072985;28;20635;-72
2022/05/21 04:13:57;;;;;;;12.57;3.88;;;18.30;86.30;;;;;;5073459;28;20031;-72
2022/05/21 04:16:23;;;;;;;10.05;3.65;;;18.30;86.40;;;;;;5073470;28;20028;-71
2022/05/21 04:18:48;;;;;;;12.75;5.00;;;18.30;86.40;;;;;;5072998;28;20084;-68
2022/05/21 04:21:14;;;;;;;12.93;5.18;;;18.30;86.50;;;;;;5073330;28;20372;-71
2022/05/21 04:23:40;;;;;;;12.35;4.45;;;18.30;86.60;;;;;;5073017;28;20103;-71
2022/05/21 04:26:05;;;;;;;12.27;4.30;;;18.30;86.70;;;;;;5073149;28;20016;-63
2022/05/21 04:28:33;;;;;;;10.90;4.30;;;18.30;87.10;;;;;;5072771;28;20090;-62
2022/05/21 04:30:59;;;;;;;10.40;4.03;;;18.30;86.90;;;;;;5073192;28;20087;-71
2022/05/21 04:33:24;;;;;;;10.10;3.35;;;18.30;87.10;;;;;;5073132;28;20025;-70
2022/05/21 04:38:35;;;;;;;14.48;5.15;;;18.30;87.00;;;;;;5073045;28;20439;-70
2022/05/21 04:41:01;;;;;;;8.60;3.30;;;18.30;87.10;;;;;;5072930;28;20029;-70
2022/05/21 04:43:26;;;;;;;11.68;4.22;;;18.30;87.30;;;;;;5073056;28;20066;-67
2022/05/21 04:45:55;;;;;;;11.48;4.20;;;18.30;87.20;;;;;;5072671;28;20458;-63
2022/05/21 04:48:22;;;;;;;11.73;3.65;;;18.30;87.40;;;;;;5073174;28;20514;-71
2022/05/21 04:50:47;;;;;;;14.70;3.67;;;18.30;87.40;;;;;;5072752;28;20036;-63
2022/05/21 04:53:13;;;;;;;13.45;4.10;;;18.40;87.60;;;;;;5072736;28;20097;-67
2022/05/21 04:55:38;;;;;;;10.27;3.75;;;18.40;87.50;;;;;;5072782;28;20487;-72
2022/05/21 04:58:05;;;;;;;11.80;4.43;;;18.30;87.40;;;;;;5069459;28;20049;-63
2022/05/21 05:00:31;;;;;;;9.10;2.90;;;18.40;87.70;;;;;;5061633;28;20066;-66
2022/05/21 05:02:56;;;;;;;11.77;3.22;;;18.40;88.30;;;;;;5073304;28;20020;-69
2022/05/21 05:05:23;;;;;;;12.25;4.82;;;18.40;87.70;;;;;;5058961;28;20025;-62
2022/05/21 05:07:48;;;;;;;8.55;3.55;;;18.40;87.70;;;;;;5076176;28;20048;-71
2022/05/21 05:10:15;;;;;;;15.70;5.85;;;18.40;87.90;;;;;;5076622;28;20476;-69
2022/05/21 05:12:40;;;;;;;9.63;4.22;;;18.50;87.90;;;;;;5076217;28;20025;-68
2022/05/21 05:15:07;;;;;;;9.60;3.75;;;18.50;87.80;;;;;;5076426;28;20499;-68
2022/05/21 05:17:33;;;;;;;13.65;4.28;;;18.50;87.80;;;;;;5075303;28;20117;-67
2022/05/21 05:20:00;;;;;;;13.32;4.95;;;18.50;87.90;;;;;;5073764;28;20070;-71
2022/05/21 05:22:26;;;;;;;9.00;3.53;;;18.50;88.00;;;;;;5075401;28;20473;-70
2022/05/21 05:24:51;;;;;;;11.23;4.22;;;18.50;88.00;;;;;;5076362;28;20027;-67
2022/05/21 05:27:17;;;;;;;9.32;3.65;;;18.50;87.90;;;;;;5075757;28;20032;-72
2022/05/21 05:29:43;;;;;;;13.68;5.22;;;18.50;88.10;;;;;;5075801;28;20032;-72
2022/05/21 05:32:09;;;;;;;16.20;5.25;;;18.50;87.60;;;;;;5065680;28;20029;-65
2022/05/21 05:34:35;;;;;;;13.55;4.30;;;18.50;87.80;;;;;;5076185;28;20028;-72
2022/05/21 05:37:01;;;;;;;10.23;4.45;;;18.60;88.00;;;;;;5074994;28;20025;-63
2022/05/21 05:39:28;;;;;;;12.90;3.50;;;18.60;88.10;;;;;;5075850;28;20032;-62
2022/05/21 05:41:54;;;;;;;11.65;4.15;;;18.60;88.00;;;;;;5075721;28;20037;-63
2022/05/21 05:44:20;;;;;;;11.57;3.78;;;18.60;87.90;;;;;;5075800;28;20028;-72
2022/05/21 05:46:46;;;;;;;12.43;4.07;;;18.70;88.20;;;;;;5074038;28;20028;-71
2022/05/21 05:49:12;;;;;;;12.82;4.07;;;18.70;88.10;;;;;;5074332;28;20031;-71
2022/05/21 05:51:38;;;;;;;14.50;4.35;;;18.70;88.10;;;;;;5074871;28;20032;-63
2022/05/21 05:54:04;;;;;;;12.15;4.20;;;18.70;88.00;;;;;;5075980;28;20012;-63
2022/05/21 05:56:29;;;;;;;15.32;4.78;;;18.70;88.40;;;;;;5075595;28;20456;-64
2022/05/21 06:01:43;;;;;;;12.20;4.55;;;18.70;88.10;;;;;;5073750;28;20063;-62
2022/05/21 06:04:09;;;;;;;13.63;4.60;;;18.80;88.80;;;;;;5080412;28;20033;-68
2022/05/21 06:06:34;;;;;;;16.05;5.38;;;18.80;89.20;;;;;;5074012;28;20024;-66
2022/05/21 06:09:00;;;;;;;17.98;5.40;;;18.80;88.90;;;;;;5075016;28;20162;-66
2022/05/21 06:11:26;;;;;;;12.30;4.22;;;18.90;88.00;;;;;;5074451;28;20040;-69
2022/05/21 06:13:51;;;;;;;16.95;5.55;;;18.90;87.80;;;;;;5075871;28;20424;-71
2022/05/21 06:16:17;;;;;;;11.48;4.32;;;19.00;88.00;;;;;;5075132;28;20024;-67
2022/05/21 06:18:44;;;;;;;15.32;4.55;;;19.00;88.10;;;;;;5074530;28;20028;-69
2022/05/21 06:21:10;;;;;;;15.95;4.40;;;19.00;88.40;;;;;;5075255;28;20021;-66
2022/05/21 06:23:40;;;;;;;14.52;4.47;;;19.00;88.70;;;;;;5074961;28;20534;-65
2022/05/21 06:26:06;;;;;;;13.32;4.40;;;19.10;88.20;;;;;;5075101;28;20520;-62
2022/05/21 06:28:32;;;;;;;15.35;4.32;;;19.10;88.30;;;;;;5074446;28;20111;-68
2022/05/21 06:30:57;;;;;;;13.80;4.18;;;19.10;87.70;;;;;;5075015;28;20060;-72
2022/05/21 06:33:29;;;;;;;11.48;3.95;;;19.20;87.20;;;;;;5074656;28;20492;-71
2022/05/21 06:36:22;;;;;;;13.30;4.10;;;19.20;87.00;;;;;;5074401;28;20040;-63
2022/05/21 06:38:48;;;;;;;15.48;4.47;;;19.20;86.50;;;;;;5074658;28;20386;-62
2022/05/21 06:41:13;;;;;;;14.20;3.53;;;19.20;86.40;;;;;;5074407;28;20496;-67
2022/05/21 06:43:39;;;;;;;13.70;5.10;;;19.30;86.40;;;;;;5074590;28;20036;-71
2022/05/21 06:46:05;;;;;;;15.00;4.57;;;19.20;86.40;;;;;;5073212;28;20054;-71
2022/05/21 06:48:30;;;;;;;15.00;4.28;;;19.20;86.50;;;;;;5074803;28;20039;-68
2022/05/21 06:50:57;;;;;;;16.80;4.57;;;19.20;86.50;;;;;;5074390;28;20037;-64
2022/05/21 06:53:22;;;;;;;10.40;3.40;;;19.30;86.50;;;;;;5073784;28;20060;-70
2022/05/21 06:55:48;;;;;;;14.23;4.32;;;19.20;86.40;;;;;;5072361;28;20060;-68
2022/05/21 06:58:13;;;;;;;12.13;3.28;;;19.30;86.60;;;;;;5072385;28;20348;-72
2022/05/21 07:00:39;;;;;;;9.18;2.67;;;19.30;87.00;;;;;;5076015;28;20094;-68
2022/05/21 07:03:04;;;;;;;10.50;2.78;;;19.40;86.60;;;;;;5073111;28;20035;-65
2022/05/21 07:08:22;;;;;;;11.13;3.17;;;19.00;88.20;;;;;;5078088;28;20058;-61
2022/05/21 07:10:48;;;;;;;10.05;3.20;;;18.70;89.60;;;;;;5088520;28;20040;-66
2022/05/21 07:13:15;;;;;;;9.18;2.97;;;18.60;90.10;;;;;;5074719;28;20366;-64
2022/05/21 07:15:41;;;;;;;9.40;2.88;;;18.50;90.20;;;;;;5073970;28;20056;-65
2022/05/21 07:18:07;;;;;;;9.50;3.03;;;18.50;90.20;;;;;;5083435;28;20051;-62
2022/05/21 07:20:32;;;;;;;11.73;3.22;;;18.50;90.30;;;;;;5081763;28;20047;-65
2022/05/21 07:23:00;;;;;;;8.50;2.35;;;18.50;90.30;;;;;;5084460;28;20118;-68
2022/05/21 07:25:28;;;;;;;12.23;3.90;;;18.50;90.30;;;;;;5080809;28;20028;-66
2022/05/21 07:27:53;;;;;;;13.60;3.17;;;18.50;90.30;;;;;;5060457;28;20017;-67
2022/05/21 07:30:19;;;;;;;9.82;3.13;;;18.50;90.30;;;;;;5076839;28;20489;-63
2022/05/21 07:32:45;;;;;;;8.35;2.33;;;18.50;90.20;;;;;;5058922;28;20115;-64
2022/05/21 07:35:14;;;;;;;8.02;2.50;;;18.60;90.30;;;;;;5076608;28;20024;-68
2022/05/21 07:37:40;;;;;;;9.05;3.05;;;18.60;90.30;;;;;;5073218;28;20039;-68
2022/05/21 07:40:08;;;;;;;7.28;2.45;;;18.60;90.20;;;;;;5074004;28;20028;-63
2022/05/21 07:42:33;;;;;;;9.35;3.45;;;18.60;90.20;;;;;;5075993;28;20032;-64
2022/05/21 07:44:59;;;;;;;9.32;3.80;;;18.60;90.20;;;;;;5070424;28;20051;-66
2022/05/21 07:47:26;;;;;;;8.55;3.25;;;18.70;90.20;;;;;;5089331;28;20015;-60
2022/05/21 07:49:54;;;;;;;10.52;3.15;;;18.60;90.20;;;;;;5069552;28;20591;-67
2022/05/21 07:52:20;;;;;;;11.35;3.45;;;18.70;90.10;;;;;;5071373;28;20031;-69
2022/05/21 07:54:46;;;;;;;10.60;3.33;;;18.70;90.00;;;;;;5075463;28;20025;-65
2022/05/21 07:57:11;;;;;;;10.02;3.15;;;18.80;90.30;;;;;;5072490;28;20420;-63
2022/05/21 07:59:38;;;;;;;11.88;3.92;;;18.70;89.80;;;;;;5070666;28;20484;-65
2022/05/21 08:02:04;;;;;;;10.50;3.70;;;18.80;89.70;;;;;;5069699;28;20040;-66
2022/05/21 08:04:30;;;;;;;10.23;4.30;;;18.80;89.40;;;;;;5071080;28;20025;-68
2022/05/21 08:06:55;;;;;;;10.35;4.97;;;18.90;89.30;;;;;;5074022;28;20031;-69
2022/05/21 08:09:22;;;;;;;15.35;4.90;;;18.90;88.50;;;;;;5072732;28;20461;-63
2022/05/21 08:11:48;;;;;;;18.05;6.03;;;18.90;88.80;;;;;;5074208;28;20032;-67
2022/05/21 08:14:13;;;;;;;15.88;6.63;;;18.90;88.40;;;;;;5067335;28;20032;-65
2022/05/21 08:16:39;;;;;;;14.77;7.38;;;18.90;87.90;;;;;;5072674;28;20025;-58
2022/05/21 08:19:05;;;;;;;21.10;7.40;;;18.90;86.90;;;;;;5081226;28;20052;-61
2022/05/21 08:21:31;;;;;;;18.63;6.63;;;18.90;85.90;;;;;;5081301;28;20027;-62
2022/05/21 08:27:02;;;;;;;20.23;7.28;;;19.00;85.60;;;;;;5067838;28;20035;-61
2022/05/21 08:29:31;;;;;;;15.07;6.13;;;19.00;85.80;;;;;;5068947;28;20033;-62
2022/05/21 08:31:58;;;;;;;15.43;6.35;;;19.00;85.60;;;;;;5073125;28;20494;-62
2022/05/21 08:34:25;;;;;;;16.63;6.70;;;19.00;86.10;;;;;;5052509;28;20458;-59
2022/05/21 08:36:51;;;;;;;12.75;6.55;;;19.10;86.80;;;;;;5071218;28;20028;-58
2022/05/21 08:39:17;;;;;;;13.48;6.28;;;19.10;87.50;;;;;;5044769;28;20024;-58
2022/05/21 08:41:49;;;;;;;15.25;7.72;;;19.10;85.00;;;;;;5069242;28;20365;-58
2022/05/21 08:44:22;;;;;;;18.20;7.10;;;19.10;89.60;;;;;;5065964;28;20024;-58
2022/05/21 08:47:08;;;;;;;18.70;7.13;;;19.20;89.10;;;;;;5068511;28;20021;-59
2022/05/21 08:49:56;;;;;;;18.67;6.90;;;19.20;90.60;;;;;;5071179;28;20032;-60
2022/05/21 08:52:31;;;;;;;14.27;6.80;;;19.20;89.60;;;;;;5042101;28;20032;-59
2022/05/21 08:54:59;;;;;;;16.27;8.25;;;19.20;88.10;;;;;;5049260;28;20029;-63
2022/05/21 08:57:32;;;;;;;20.83;8.32;;;19.20;91.40;;;;;;5068369;28;20021;-62
2022/05/21 09:00:04;;;;;;;18.10;9.93;;;19.20;91.60;;;;;;5085977;28;20024;-62
2022/05/21 09:02:35;;;;;;;18.60;9.82;;;19.30;92.80;;;;;;5079585;28;20035;-60
2022/05/21 09:05:06;;;;;;;16.00;8.27;;;19.30;93.60;;;;;;5081387;28;20017;-60
2022/05/21 09:07:49;;;;;;;18.02;8.75;;;19.30;93.00;;;;;;5087302;28;20073;-61
2022/05/21 09:10:53;;;;;;;13.80;7.22;;;19.30;93.30;;;;;;5053268;28;20026;-60
2022/05/21 09:13:20;;;;;;;17.65;7.22;;;19.40;92.50;;;;;;5066197;28;20071;-64
2022/05/21 09:18:32;;;;;;;17.70;7.32;;;19.40;92.30;;;;;;5060778;28;20161;-61
2022/05/21 09:21:00;;;;;;;12.35;5.45;;;19.40;91.30;;;;;;5082104;28;20027;-61
2022/05/21 09:23:44;;;;;;;13.07;6.05;;;19.40;90.20;;;;;;5082146;28;20024;-61
2022/05/21 09:26:10;;;;;;;12.40;5.50;;;19.50;88.30;;;;;;5074193;28;20420;-60
2022/05/21 09:28:38;;;;;;;12.27;6.45;;;19.40;86.00;;;;;;5084949;28;20025;-61
2022/05/21 09:31:06;;;;;;;12.07;6.03;;;19.50;84.60;;;;;;5079316;28;20055;-66
2022/05/21 09:33:37;;;;;;;12.35;5.18;;;19.60;83.50;;;;;;5080920;28;20097;-64
2022/05/21 09:36:03;;;;;;;15.98;5.68;;;19.60;88.80;;;;;;5074551;28;20032;-65
2022/05/21 09:38:33;;;;;;;15.13;5.55;;;19.60;90.30;;;;;;5079632;28;20016;-62
2022/05/21 09:41:08;;;;;;;14.60;5.50;;;19.60;88.00;;;;;;5054682;28;20119;-62
2022/05/21 09:46:22;;;;;;;11.23;4.80;;;19.60;84.80;;;;;;5068900;28;20056;-64
2022/05/21 09:48:49;;;;;;;11.82;4.65;;;19.70;90.00;;;;;;5077369;28;20495;-61
2022/05/21 09:51:29;;;;;;;9.52;4.38;;;19.70;90.20;;;;;;5071435;28;20045;-61
2022/05/21 09:53:55;;;;;;;13.68;4.72;;;19.80;89.90;;;;;;5052497;28;20483;-63
2022/05/21 09:56:25;;;;;;;12.32;4.75;;;19.80;89.20;;;;;;5073842;28;20456;-64
2022/05/21 09:59:12;;;;;;;10.73;4.18;;;19.80;87.80;;;;;;5073502;28;20186;-60
2022/05/21 10:01:44;;;;;;;13.43;5.13;;;19.80;88.40;;;;;;5084049;28;20460;-62
2022/05/21 10:04:13;;;;;;;;;;;19.80;87.50;;;;;;5074739;28;20420;-64
2022/05/21 10:06:44;;;;;;;13.85;4.43;;;19.80;87.50;;;;;;5084806;28;20393;-61
2022/05/21 10:12:07;;;;;;;9.57;4.18;;;19.90;88.00;;;;;;5074725;28;20100;-64
2022/05/21 10:14:40;;;;;;;11.70;5.05;;;19.90;86.20;;;;;;5079714;28;20020;-64
2022/05/21 10:17:12;;;;;;;11.23;4.43;;;19.90;85.50;;;;;;5084007;28;20067;-65
2022/05/21 10:19:59;;;;;;;8.67;3.67;;;19.90;85.00;;;;;;5087656;28;20077;-65
2022/05/21 10:22:49;;;;;;;7.75;3.35;;;20.00;85.50;;;;;;5048377;28;20360;-64
2022/05/21 10:25:31;;;;;;;12.02;4.40;;;20.00;85.40;;;;;;5079817;28;20540;-65
2022/05/21 10:27:57;;;;;;;;;;;20.00;83.50;;;;;;5089954;28;20024;-65
2022/05/21 10:30:27;;;;;;;10.63;4.15;;;20.00;83.80;;;;;;5076798;28;19919;-62
2022/05/21 10:33:12;;;;;;;7.10;3.33;;;20.00;84.10;;;;;;5080414;28;20020;-63
2022/05/21 10:36:15;;;;;;;9.75;3.90;;;20.00;84.30;;;;;;5079445;28;20043;-64
2022/05/21 10:39:24;;;;;;;8.48;3.65;;;20.10;84.10;;;;;;5060133;28;20027;-64
2022/05/21 10:41:52;;;;;;;10.10;4.47;;;20.00;83.60;;;;;;5071660;28;20452;-65
2022/05/21 10:44:35;;;;;;;14.77;4.78;;;20.10;83.30;;;;;;5076640;28;20074;-66
2022/05/21 10:47:03;;;;;;;10.25;3.60;;;20.10;82.90;;;;;;5078099;28;20457;-64
2022/05/21 10:49:49;;;;;;;11.05;3.60;;;20.10;83.50;;;;;;5080163;28;20032;-65
2022/05/21 10:52:51;;;;;;;10.82;4.65;;;20.10;84.40;;;;;;5074958;28;20120;-65
2022/05/21 10:55:29;;;;;;;11.02;4.85;;;20.10;84.00;;;;;;5076036;28;20469;-65
2022/05/21 10:58:13;;;;;;;11.05;5.40;;;20.10;84.50;;;;;;5063143;28;20029;-65
2022/05/21 11:00:59;;;;;;;11.00;5.63;;;20.20;88.70;;;;;;5069763;28;20135;-65
2022/05/21 11:03:42;;;;;;;17.45;7.03;;;20.20;87.70;;;;;;5079367;28;20036;-64
2022/05/21 11:06:32;;;;;;;24.15;9.90;;;20.20;90.10;;;;;;5074145;28;20100;-65
2022/05/21 11:09:31;;;;;;;33.05;12.00;;;20.30;91.80;;;;;;5076069;28;20439;-65
2022/05/21 11:12:14;;;;;;;24.63;10.55;;;20.30;92.40;;;;;;5071063;28;20032;-64
2022/05/21 11:14:49;;;;;;;33.53;11.48;;;20.30;91.80;;;;;;5075403;28;20032;-66
2022/05/21 11:17:26;;;;;;;34.58;13.18;;;20.30;91.70;;;;;;5067775;28;20063;-62
2022/05/21 11:20:23;;;;;;;48.95;15.60;;;20.40;90.60;;;;;;5073936;28;20016;-61
2022/05/21 11:22:59;;;;;;;38.72;15.30;;;20.40;90.40;;;;;;5062343;28;20028;-64
2022/05/21 11:25:34;;;;;;;34.40;13.43;;;20.40;90.50;;;;;;5064878;28;20024;-65
2022/05/21 11:28:16;;;;;;;30.90;12.93;;;20.40;89.80;;;;;;5070489;28;20055;-60
2022/05/21 11:30:42;;;;;;;28.50;11.68;;;20.40;89.30;;;;;;5075489;28;20035;-65
2022/05/21 11:38:53;;;;;;;21.65;9.68;;;20.50;85.40;;;;;;5078625;28;20034;-65
2022/05/21 11:41:25;;;;;;;19.02;8.15;;;20.50;85.60;;;;;;5070487;28;20037;-66
2022/05/21 11:43:56;;;;;;;20.70;8.50;;;20.60;84.50;;;;;;5068232;28;20047;-66
2022/05/21 11:46:37;;;;;;;19.45;7.30;;;20.60;84.30;;;;;;5071381;28;20085;-68
2022/05/21 11:49:29;;;;;;;17.58;6.65;;;20.60;83.10;;;;;;5079795;28;20027;-61
2022/05/21 11:51:58;;;;;;;;;;;20.70;79.40;;;;;;5070351;28;20041;-60
2022/05/21 11:54:45;;;;;;;8.85;4.25;;;20.60;76.70;;;;;;5047252;28;19929;-70
2022/05/21 11:57:28;;;;;;;12.10;4.38;;;20.60;77.30;;;;;;5052524;28;20033;-66
2022/05/21 11:59:53;;;;;;;10.25;3.83;;;20.70;77.10;;;;;;5069043;28;20116;-62
2022/05/21 12:02:24;;;;;;;10.32;4.07;;;20.60;77.40;;;;;;5071969;28;20099;-61
2022/05/21 12:04:54;;;;;;;9.23;3.85;;;20.60;77.60;;;;;;5073365;28;20055;-66
2022/05/21 12:07:41;;;;;;;12.93;5.10;;;20.70;77.30;;;;;;5070253;28;20036;-66
2022/05/21 12:10:24;;;;;;;9.95;4.50;;;20.70;76.00;;;;;;5079833;28;20032;-68
2022/05/21 12:13:01;;;;;;;;;;;20.70;75.30;;;;;;5071718;28;20032;-69
2022/05/21 12:15:43;;;;;;;10.35;4.38;;;20.70;76.40;;;;;;5083208;28;20372;-69
2022/05/21 12:18:33;;;;;;;12.63;3.70;;;20.70;77.10;;;;;;5072685;28;20108;-69
2022/05/21 12:20:59;;;;;;;11.30;4.68;;;20.80;78.40;;;;;;5060925;28;20731;-69
2022/05/21 12:23:33;;;;;;;8.70;4.00;;;20.80;78.60;;;;;;5070031;28;20480;-69
2022/05/21 12:25:59;;;;;;;10.07;5.55;;;20.80;78.90;;;;;;5074165;28;20048;-69
2022/05/21 12:28:53;;;;;;;10.63;4.57;;;20.80;76.60;;;;;;5071270;28;20063;-67
2022/05/21 12:31:22;;;;;;;12.13;4.70;;;20.90;77.80;;;;;;5047253;28;20056;-68
2022/05/21 12:34:12;;;;;;;8.75;4.38;;;20.90;78.40;;;;;;5071585;28;20021;-70
2022/05/21 12:37:06;;;;;;;8.98;3.80;;;20.90;77.60;;;;;;5069572;28;20024;-69
2022/05/21 12:39:59;;;;;;;10.85;4.18;;;20.90;78.80;;;;;;5078341;28;20168;-70
2022/05/21 12:42:55;;;;;;;6.65;3.67;;;20.90;79.10;;;;;;5070827;28;20103;-69
2022/05/21 12:45:29;;;;;;;7.35;3.90;;;21.00;78.70;;;;;;5078131;28;20018;-68
2022/05/21 12:48:10;;;;;;;10.13;4.47;;;21.00;78.80;;;;;;5088002;28;20480;-69
2022/05/21 12:50:55;;;;;;;7.03;3.88;;;21.00;77.50;;;;;;5061186;28;20029;-68
2022/05/21 12:53:45;;;;;;;7.65;3.90;;;21.00;76.40;;;;;;5065967;28;20020;-66
2022/05/21 12:56:31;;;;;;;8.68;3.53;;;21.00;75.80;;;;;;5075869;28;20469;-69
2022/05/21 12:59:06;;;;;;;7.28;3.00;;;21.00;77.60;;;;;;5080814;28;20339;-65
2022/05/21 13:01:34;;;;;;;9.00;3.15;;;21.00;78.50;;;;;;5077691;28;20038;-69
2022/05/21 13:04:00;;;;;;;7.40;3.30;;;21.10;78.10;;;;;;5074691;28;20535;-69
2022/05/21 13:06:31;;;;;;;10.65;2.88;;;21.10;76.40;;;;;;5085396;28;20086;-69
2022/05/21 13:08:59;;;;;;;7.47;2.72;;;21.20;75.20;;;;;;5069853;28;20051;-67
2022/05/21 13:11:32;;;;;;;7.28;2.45;;;21.20;74.60;;;;;;5076232;28;20079;-70
2022/05/21 13:14:03;;;;;;;9.98;2.25;;;21.20;73.50;;;;;;5081799;28;20390;-69
2022/05/21 13:16:29;;;;;;;8.07;2.00;;;21.20;73.40;;;;;;5087301;28;20020;-70
2022/05/21 13:19:32;;;;;;;7.47;2.10;;;21.20;72.90;;;;;;5069974;28;20087;-68
2022/05/21 13:22:11;;;;;;;10.80;1.90;;;21.20;73.10;;;;;;5077408;28;20027;-69
2022/05/21 13:25:15;;;;;;;6.03;1.95;;;21.20;73.00;;;;;;5080271;28;20038;-69
2022/05/21 13:27:51;;;;;;;6.82;2.13;;;21.20;74.30;;;;;;5012014;28;20022;-67
2022/05/21 13:30:27;;;;;;;6.72;2.13;;;21.20;74.00;;;;;;5067140;28;20101;-70
2022/05/21 13:32:58;;;;;;;7.32;2.17;;;21.30;74.20;;;;;;5086797;28;20033;-67